Time;durP1;ratioP1;P1;durP2;ratioP2;P2;SDS_P1;SDS_P2;PMS_P1;PMS_P2;Temp;Humidity;BMP_temperature;BMP_pressure;BME280_temperature;BME280_humidity;BME280_pressure;Samples;Min_cycle;Max_cycle;Signal;HPM_P1;HPM_P2
2023/12/24 00:01:11;;;;;;;1.13;0.80;;;;;;;8.79;100.00;99667.25;5070270;28;20236;-78
2023/12/24 00:03:37;;;;;;;0.77;0.57;;;;;;;8.81;100.00;99680.81;5079344;28;20172;-77
2023/12/24 00:06:03;;;;;;;0.77;0.77;;;;;;;8.80;100.00;99674.84;5064597;28;20671;-79
2023/12/24 00:08:28;;;;;;;0.93;0.70;;;;;;;8.82;100.00;99677.31;5062693;28;20272;-72
2023/12/24 00:10:56;;;;;;;2.03;1.10;;;;;;;8.89;100.00;99663.25;5041776;28;20224;-79
2023/12/24 00:13:21;;;;;;;1.33;0.67;;;;;;;8.85;100.00;99651.53;5060441;28;20583;-72
2023/12/24 00:15:46;;;;;;;0.90;0.90;;;;;;;8.82;100.00;99638.84;5070441;28;20311;-71
2023/12/24 00:18:12;;;;;;;4.57;0.80;;;;;;;8.80;100.00;99633.81;5071203;28;20176;-72
2023/12/24 00:20:37;;;;;;;2.63;1.10;;;;;;;8.88;100.00;99623.97;5061132;28;20239;-72
2023/12/24 00:23:07;;;;;;;2.00;0.97;;;;;;;8.86;100.00;99619.84;5082349;28;20588;-72
2023/12/24 00:25:34;;;;;;;1.47;0.80;;;;;;;8.91;100.00;99604.19;5068115;28;20225;-73
2023/12/24 00:28:00;;;;;;;1.37;1.00;;;;;;;8.93;100.00;99604.91;5071961;28;20263;-74
2023/12/24 00:30:28;;;;;;;1.77;0.80;;;;;;;8.94;100.00;99598.88;5035644;28;20298;-72
2023/12/24 00:32:54;;;;;;;2.17;1.00;;;;;;;8.97;100.00;99606.41;5065358;28;20182;-74
2023/12/24 00:35:23;;;;;;;1.13;0.90;;;;;;;9.00;100.00;99608.81;5065455;28;20196;-74
2023/12/24 00:37:49;;;;;;;1.27;1.07;;;;;;;9.01;100.00;99610.47;5067941;28;20205;-76
2023/12/24 00:40:16;;;;;;;2.30;1.00;;;;;;;9.00;100.00;99616.50;5054867;28;20185;-78
2023/12/24 00:42:42;;;;;;;1.23;0.77;;;;;;;9.04;100.00;99616.25;5072808;28;20185;-80
2023/12/24 00:45:11;;;;;;;2.13;1.10;;;;;;;9.14;100.00;99621.69;5050442;28;20188;-75
2023/12/24 00:47:37;;;;;;;0.90;0.90;;;;;;;9.16;100.00;99629.31;5060518;28;20176;-76
2023/12/24 00:50:05;;;;;;;1.70;1.50;;;;;;;9.17;100.00;99636.91;5059115;28;20555;-75
2023/12/24 00:52:30;;;;;;;0.93;0.50;;;;;;;9.11;100.00;99628.75;5076500;28;20196;-75
2023/12/24 00:54:56;;;;;;;1.17;1.10;;;;;;;9.16;100.00;99632.69;5069940;28;20181;-76
2023/12/24 00:57:21;;;;;;;0.90;0.77;;;;;;;9.27;100.00;99631.28;5071659;28;20216;-76
2023/12/24 00:59:46;;;;;;;0.70;0.70;;;;;;;9.19;100.00;99623.97;5070645;28;20177;-76
2023/12/24 01:02:11;;;;;;;2.10;1.00;;;;;;;9.24;100.00;99613.47;5076850;28;20226;-75
2023/12/24 01:04:37;;;;;;;0.90;0.73;;;;;;;9.17;100.00;99605.28;5071270;28;20185;-76
2023/12/24 01:07:02;;;;;;;0.87;0.70;;;;;;;9.13;100.00;99629.44;5071015;28;20183;-79
2023/12/24 01:09:27;;;;;;;2.20;0.90;;;;;;;9.17;100.00;99630.97;5069987;28;20188;-80
2023/12/24 01:11:53;;;;;;;1.13;0.80;;;;;;;9.18;100.00;99636.00;5074144;28;20252;-80
2023/12/24 01:14:19;;;;;;;0.80;0.80;;;;;;;9.22;100.00;99630.72;5067883;28;20195;-82
2023/12/24 01:16:44;;;;;;;0.60;0.60;;;;;;;9.29;100.00;99640.53;5069138;28;20203;-80
2023/12/24 01:19:09;;;;;;;1.33;0.73;;;;;;;9.45;100.00;99635.34;5045398;28;20647;-80
2023/12/24 01:21:35;;;;;;;0.67;0.67;;;;;;;9.34;100.00;99643.66;5054375;28;20238;-80
2023/12/24 01:24:00;;;;;;;1.13;0.90;;;;;;;9.36;100.00;99656.41;5058977;28;20181;-80
2023/12/24 01:26:25;;;;;;;1.07;0.60;;;;;;;9.26;100.00;99656.09;5069432;28;20183;-80
2023/12/24 01:28:51;;;;;;;0.70;0.70;;;;;;;9.29;100.00;99653.38;5067416;28;20705;-79
2023/12/24 01:31:16;;;;;;;1.70;1.10;;;;;;;9.20;100.00;99662.41;5052949;28;20635;-78
2023/12/24 01:33:41;;;;;;;1.57;1.17;;;;;;;9.18;100.00;99658.28;5063950;28;20189;-79
2023/12/24 01:36:07;;;;;;;0.77;0.77;;;;;;;9.26;100.00;99665.53;5070570;28;20279;-78
2023/12/24 01:38:33;;;;;;;1.57;0.93;;;;;;;9.28;100.00;99666.25;5070227;28;20233;-76
2023/12/24 01:40:58;;;;;;;0.90;0.90;;;;;;;9.22;100.00;99666.63;5054438;28;20221;-82
2023/12/24 01:43:23;;;;;;;1.17;0.80;;;;;;;9.18;100.00;99663.41;5060147;28;20205;-83
2023/12/24 01:45:48;;;;;;;0.80;0.80;;;;;;;9.16;100.00;99657.53;5069799;28;20229;-82
2023/12/24 01:48:15;;;;;;;0.60;0.60;;;;;;;9.18;100.00;99659.09;5056672;28;20512;-82
2023/12/24 01:50:43;;;;;;;1.23;0.80;;;;;;;9.18;100.00;99668.53;5051067;28;20224;-77
2023/12/24 01:53:09;;;;;;;2.00;0.90;;;;;;;9.17;100.00;99660.00;5050668;28;20180;-76
2023/12/24 01:55:34;;;;;;;1.00;0.83;;;;;;;9.13;100.00;99653.41;5060759;28;20189;-76
2023/12/24 01:57:59;;;;;;;0.67;0.67;;;;;;;9.13;100.00;99657.69;5070592;28;20201;-77
2023/12/24 02:00:25;;;;;;;0.80;0.77;;;;;;;9.13;100.00;99668.78;5062645;28;20219;-77
2023/12/24 02:02:51;;;;;;;0.70;0.70;;;;;;;9.18;100.00;99669.34;5069832;28;20169;-77
2023/12/24 02:05:16;;;;;;;1.47;0.97;;;;;;;9.14;100.00;99659.34;5070287;28;20213;-71
2023/12/24 02:07:44;;;;;;;2.33;1.77;;;;;;;9.13;100.00;99658.53;5064834;28;20177;-84
2023/12/24 02:10:09;;;;;;;0.77;0.70;;;;;;;9.20;100.00;99670.09;5058711;28;20230;-81
2023/12/24 02:12:36;;;;;;;1.03;0.73;;;;;;;9.23;100.00;99661.41;5064023;28;20582;-79
2023/12/24 02:15:01;;;;;;;1.00;0.80;;;;;;;9.22;100.00;99674.34;5059498;28;20271;-77
2023/12/24 02:17:27;;;;;;;0.80;0.80;;;;;;;9.16;100.00;99673.75;5065244;28;20240;-85
2023/12/24 02:19:53;;;;;;;0.90;0.77;;;;;;;9.14;100.00;99670.44;5061068;28;20232;-83
2023/12/24 02:22:18;;;;;;;1.17;0.93;;;;;;;9.29;100.00;99670.50;5041822;28;20360;-83
2023/12/24 02:24:44;;;;;;;1.07;0.80;;;;;;;9.26;100.00;99668.09;5064267;28;20272;-85
2023/12/24 02:27:41;;;;;;;1.00;0.70;;;;;;;9.22;100.00;99670.00;5042887;28;20190;-83
2023/12/24 02:30:15;;;;;;;2.80;0.70;;;;;;;9.33;100.00;99679.69;5047476;28;20215;-84
2023/12/24 02:32:43;;;;;;;2.13;1.13;;;;;;;9.24;100.00;99675.06;5064432;28;20242;-77
2023/12/24 02:35:10;;;;;;;1.23;0.90;;;;;;;9.25;100.00;99666.44;5056887;28;20185;-79
2023/12/24 02:37:36;;;;;;;1.60;0.90;;;;;;;9.13;100.00;99660.25;5049798;28;20193;-77
2023/12/24 02:40:01;;;;;;;1.30;1.00;;;;;;;9.04;100.00;99648.75;5060909;28;20260;-77
2023/12/24 02:42:26;;;;;;;2.57;1.20;;;;;;;9.01;100.00;99644.63;5066204;28;20232;-74
2023/12/24 02:44:52;;;;;;;1.20;1.07;;;;;;;8.95;100.00;99650.09;5058533;28;20551;-74
2023/12/24 02:47:17;;;;;;;1.47;1.07;;;;;;;8.94;100.00;99634.78;5064832;28;20667;-74
2023/12/24 02:49:42;;;;;;;1.17;1.00;;;;;;;8.94;100.00;99627.09;5061159;28;20189;-74
2023/12/24 02:52:07;;;;;;;0.90;0.90;;;;;;;9.00;100.00;99621.63;5056984;28;20281;-75
2023/12/24 02:54:33;;;;;;;1.70;1.40;;;;;;;9.05;100.00;99629.88;5065195;28;20696;-75
2023/12/24 02:56:58;;;;;;;5.90;1.27;;;;;;;9.09;100.00;99633.97;5062708;28;20201;-75
2023/12/24 02:59:26;;;;;;;1.23;1.07;;;;;;;9.07;100.00;99643.47;5049165;28;20252;-75
2023/12/24 03:01:51;;;;;;;1.07;1.03;;;;;;;9.07;100.00;99642.63;5026775;28;20279;-75
2023/12/24 03:04:16;;;;;;;1.80;1.23;;;;;;;9.15;100.00;99649.00;5050401;28;20197;-75
2023/12/24 03:06:41;;;;;;;1.37;1.27;;;;;;;9.19;100.00;99641.94;5051286;28;20189;-74
2023/12/24 03:09:07;;;;;;;1.83;0.97;;;;;;;9.25;100.00;99639.03;5051590;28;20189;-76
2023/12/24 03:11:32;;;;;;;2.53;1.33;;;;;;;9.30;100.00;99639.63;5052393;28;20584;-75
2023/12/24 03:13:57;;;;;;;1.53;1.10;;;;;;;9.38;100.00;99628.91;5054800;28;20231;-76
2023/12/24 03:16:22;;;;;;;1.93;1.00;;;;;;;9.33;100.00;99612.94;5049526;28;20537;-77
2023/12/24 03:18:48;;;;;;;1.10;1.00;;;;;;;9.26;100.00;99612.47;5050235;28;20200;-76
2023/12/24 03:21:13;;;;;;;1.10;1.00;;;;;;;9.14;100.00;99600.31;5049708;28;20236;-76
2023/12/24 03:23:38;;;;;;;1.60;1.00;;;;;;;9.14;100.00;99587.50;5058208;28;20544;-77
2023/12/24 03:26:03;;;;;;;1.10;0.97;;;;;;;9.07;100.00;99579.34;5056158;28;20189;-75
2023/12/24 03:28:30;;;;;;;1.83;1.23;;;;;;;9.08;100.00;99562.19;5054945;28;20185;-75
2023/12/24 03:30:56;;;;;;;2.80;0.80;;;;;;;8.99;100.00;99564.38;5051351;28;20299;-75
2023/12/24 03:33:22;;;;;;;0.90;0.90;;;;;;;9.03;100.00;99559.91;5061000;28;20285;-76
2023/12/24 03:35:47;;;;;;;1.57;0.80;;;;;;;9.01;100.00;99551.47;5063400;28;20188;-75
2023/12/24 03:38:12;;;;;;;1.10;0.90;;;;;;;9.05;100.00;99550.34;5055238;28;20212;-75
2023/12/24 03:40:38;;;;;;;1.13;0.80;;;;;;;9.09;100.00;99538.19;5050635;28;20259;-75
2023/12/24 03:43:03;;;;;;;1.80;1.00;;;;;;;9.12;100.00;99536.28;5053274;28;20199;-75
2023/12/24 03:45:29;;;;;;;1.03;0.80;;;;;;;9.17;100.00;99543.72;5055070;28;20197;-76
2023/12/24 03:47:54;;;;;;;1.83;1.10;;;;;;;9.11;100.00;99549.19;5055007;28;20177;-76
2023/12/24 03:50:19;;;;;;;0.80;0.80;;;;;;;9.02;100.00;99546.22;5047656;28;20182;-75
2023/12/24 03:52:45;;;;;;;0.70;0.70;;;;;;;9.02;100.00;99548.78;5053030;28;20216;-75
2023/12/24 03:55:10;;;;;;;1.10;1.00;;;;;;;8.99;100.00;99553.28;5066201;28;20185;-75
2023/12/24 03:57:35;;;;;;;0.77;0.77;;;;;;;9.13;100.00;99539.66;5052372;28;20201;-75
2023/12/24 04:00:00;;;;;;;0.70;0.70;;;;;;;9.20;100.00;99538.38;5054188;28;20177;-75
2023/12/24 04:02:26;;;;;;;0.83;0.70;;;;;;;9.12;100.00;99536.28;5059624;28;20707;-75
2023/12/24 04:04:51;;;;;;;0.70;0.70;;;;;;;9.07;100.00;99542.56;5053233;28;20178;-75
2023/12/24 04:07:17;;;;;;;0.70;0.70;;;;;;;9.12;100.00;99532.88;5053596;28;20185;-75
2023/12/24 04:09:42;;;;;;;2.37;0.70;;;;;;;9.15;100.00;99530.13;5057291;28;20181;-75
2023/12/24 04:12:08;;;;;;;1.00;0.83;;;;;;;9.00;100.00;99527.53;5064622;28;20756;-75
2023/12/24 04:14:37;;;;;;;0.90;0.80;;;;;;;9.02;100.00;99533.41;5072565;28;20172;-75
2023/12/24 04:17:04;;;;;;;0.97;0.70;;;;;;;8.95;100.00;99521.03;5073326;28;20671;-75
2023/12/24 04:19:29;;;;;;;1.03;0.90;;;;;;;8.98;100.00;99525.97;5072524;28;20173;-75
2023/12/24 04:21:54;;;;;;;1.43;0.80;;;;;;;8.94;100.00;99524.50;5077994;28;20216;-75
2023/12/24 04:24:20;;;;;;;1.87;1.10;;;;;;;8.96;100.00;99518.34;5071554;28;20176;-75
2023/12/24 04:26:45;;;;;;;1.30;0.93;;;;;;;8.96;100.00;99512.41;5072913;28;20651;-75
2023/12/24 04:29:10;;;;;;;0.93;0.70;;;;;;;8.95;100.00;99509.00;5054966;28;20566;-75
2023/12/24 04:31:39;;;;;;;0.60;0.60;;;;;;;8.92;100.00;99510.91;5035239;28;20691;-75
2023/12/24 04:34:06;;;;;;;2.67;0.70;;;;;;;8.94;100.00;99503.97;5057114;28;20581;-75
2023/12/24 04:36:31;;;;;;;0.97;0.60;;;;;;;8.94;100.00;99514.25;5071945;28;20193;-74
2023/12/24 04:38:56;;;;;;;0.77;0.77;;;;;;;8.94;100.00;99516.81;5054667;28;20235;-74
2023/12/24 04:41:22;;;;;;;0.70;0.70;;;;;;;8.81;100.00;99506.41;5053156;28;20220;-75
2023/12/24 04:43:47;;;;;;;0.70;0.70;;;;;;;8.80;100.00;99497.06;5058266;28;20668;-74
2023/12/24 04:46:13;;;;;;;0.77;0.77;;;;;;;8.74;100.00;99503.38;5053809;28;20184;-75
2023/12/24 04:48:38;;;;;;;0.80;0.80;;;;;;;8.76;100.00;99523.78;5052246;28;20185;-75
2023/12/24 04:51:04;;;;;;;0.70;0.70;;;;;;;8.69;100.00;99502.81;5045038;28;20221;-76
2023/12/24 04:53:29;;;;;;;1.10;0.70;;;;;;;8.74;100.00;99505.94;5056546;28;20176;-75
2023/12/24 04:55:55;;;;;;;1.63;0.60;;;;;;;8.75;100.00;99507.59;5060228;28;20177;-74
2023/12/24 04:58:20;;;;;;;0.67;0.63;;;;;;;8.72;100.00;99511.16;5051127;28;20186;-74
2023/12/24 05:00:45;;;;;;;0.70;0.70;;;;;;;8.71;100.00;99518.94;5044493;28;20243;-75
2023/12/24 05:03:11;;;;;;;1.13;0.80;;;;;;;8.67;100.00;99504.63;5055442;28;20640;-75
2023/12/24 05:05:36;;;;;;;0.97;0.80;;;;;;;8.64;100.00;99515.88;5072520;28;20185;-73
2023/12/24 05:08:02;;;;;;;0.70;0.70;;;;;;;8.63;100.00;99511.66;5071508;28;20263;-74
2023/12/24 05:10:28;;;;;;;0.83;0.70;;;;;;;8.61;100.00;99517.78;5063883;28;20228;-74
2023/12/24 05:12:53;;;;;;;0.63;0.63;;;;;;;8.72;100.00;99493.19;5070945;28;20200;-74
2023/12/24 05:15:18;;;;;;;0.60;0.60;;;;;;;8.70;100.00;99496.78;5072114;28;20189;-75
2023/12/24 05:17:44;;;;;;;0.70;0.70;;;;;;;8.68;100.00;99496.03;5071410;28;20218;-74
2023/12/24 05:20:09;;;;;;;0.80;0.80;;;;;;;8.59;100.00;99501.69;5062809;28;20229;-73
2023/12/24 05:22:34;;;;;;;0.77;0.77;;;;;;;8.63;100.00;99503.16;5085650;28;20577;-74
2023/12/24 05:25:00;;;;;;;1.00;0.77;;;;;;;8.64;100.00;99499.69;5072352;28;20587;-74
2023/12/24 05:27:26;;;;;;;1.47;0.70;;;;;;;8.61;100.00;99497.28;5070182;28;20195;-74
2023/12/24 05:29:52;;;;;;;0.70;0.70;;;;;;;8.48;100.00;99513.31;5070929;28;20185;-74
2023/12/24 05:32:17;;;;;;;0.70;0.70;;;;;;;8.49;100.00;99512.41;5077117;28;20227;-74
2023/12/24 05:34:43;;;;;;;2.33;1.13;;;;;;;8.44;100.00;99516.13;5070660;28;20588;-73
2023/12/24 05:37:08;;;;;;;0.70;0.70;;;;;;;8.28;100.00;99509.28;5069748;28;20189;-74
2023/12/24 05:39:33;;;;;;;1.00;0.90;;;;;;;8.14;100.00;99506.66;5071792;28;20234;-75
2023/12/24 05:41:58;;;;;;;0.83;0.83;;;;;;;8.07;100.00;99511.25;5076002;28;20664;-75
2023/12/24 05:44:24;;;;;;;1.57;0.70;;;;;;;7.94;100.00;99505.13;5063198;28;20197;-77
2023/12/24 05:46:52;;;;;;;1.63;0.80;;;;;;;7.79;100.00;99512.75;5070508;28;20199;-76
2023/12/24 05:49:18;;;;;;;2.53;0.80;;;;;;;7.71;100.00;99515.66;5070068;28;20181;-75
2023/12/24 05:51:43;;;;;;;0.70;0.70;;;;;;;7.74;100.00;99518.09;5074167;28;20303;-75
2023/12/24 05:54:08;;;;;;;0.80;0.80;;;;;;;7.70;100.00;99514.03;5074296;28;20213;-75
2023/12/24 05:56:34;;;;;;;0.70;0.70;;;;;;;7.66;100.00;99504.03;5069851;28;20231;-76
2023/12/24 05:58:59;;;;;;;1.00;1.00;;;;;;;7.64;100.00;99514.38;5072261;28;20543;-74
2023/12/24 06:01:24;;;;;;;0.93;0.80;;;;;;;7.67;100.00;99521.88;5057472;28;20209;-75
2023/12/24 06:03:49;;;;;;;0.90;0.77;;;;;;;7.64;100.00;99526.31;5067555;28;20325;-76
2023/12/24 06:06:15;;;;;;;0.77;0.77;;;;;;;7.63;100.00;99524.66;5069626;28;20554;-76
2023/12/24 06:08:40;;;;;;;0.60;0.60;;;;;;;7.69;100.00;99514.94;5071059;28;20177;-74
2023/12/24 06:11:05;;;;;;;1.60;0.70;;;;;;;7.70;100.00;99520.88;5069142;28;20220;-75
2023/12/24 06:13:31;;;;;;;1.00;1.00;;;;;;;7.75;100.00;99519.75;5069683;28;20186;-75
2023/12/24 06:15:56;;;;;;;0.77;0.77;;;;;;;7.74;100.00;99530.88;5050486;28;20286;-75
2023/12/24 06:18:21;;;;;;;0.80;0.80;;;;;;;7.78;100.00;99534.13;5051397;28;20177;-76
2023/12/24 06:20:46;;;;;;;1.53;1.07;;;;;;;7.69;100.00;99529.47;5042945;28;20306;-75
2023/12/24 06:23:12;;;;;;;1.83;0.80;;;;;;;7.71;100.00;99525.91;5050507;28;20191;-76
2023/12/24 06:25:37;;;;;;;0.70;0.70;;;;;;;7.78;100.00;99528.16;5052286;28;20196;-75
2023/12/24 06:28:03;;;;;;;0.77;0.77;;;;;;;7.79;100.00;99522.13;5070813;28;20537;-76
2023/12/24 06:30:28;;;;;;;0.80;0.70;;;;;;;7.78;100.00;99523.03;5061855;28;20310;-76
2023/12/24 06:32:54;;;;;;;0.83;0.80;;;;;;;7.84;100.00;99528.69;5083041;28;20181;-77
2023/12/24 06:35:21;;;;;;;1.17;0.90;;;;;;;7.87;100.00;99525.13;5044211;28;20623;-77
2023/12/24 06:37:46;;;;;;;0.93;0.87;;;;;;;7.79;100.00;99524.69;5070791;28;20647;-77
2023/12/24 06:40:11;;;;;;;1.07;0.80;;;;;;;7.84;100.00;99522.72;5060835;28;20176;-76
2023/12/24 06:42:36;;;;;;;2.63;1.23;;;;;;;7.88;100.00;99530.16;5064318;28;20181;-76
2023/12/24 06:45:02;;;;;;;0.73;0.73;;;;;;;7.87;100.00;99523.38;5066411;28;20235;-76
2023/12/24 06:47:27;;;;;;;1.20;0.90;;;;;;;7.83;100.00;99523.66;5070552;28;20181;-73
2023/12/24 06:49:52;;;;;;;0.90;0.90;;;;;;;7.81;100.00;99536.50;5067394;28;20191;-73
2023/12/24 06:52:19;;;;;;;1.17;1.03;;;;;;;7.80;100.00;99537.44;5041329;28;20319;-74
2023/12/24 06:54:44;;;;;;;0.90;0.90;;;;;;;7.87;100.00;99540.50;5066068;28;20207;-76
2023/12/24 06:57:10;;;;;;;1.13;1.10;;;;;;;7.94;100.00;99541.84;5070271;28;20648;-76
2023/12/24 06:59:35;;;;;;;1.37;1.13;;;;;;;8.06;100.00;99532.66;5071410;28;20180;-74
2023/12/24 07:02:01;;;;;;;1.07;1.07;;;;;;;8.01;100.00;99534.63;5079460;27;20216;-77
2023/12/24 07:04:26;;;;;;;1.00;1.00;;;;;;;7.96;100.00;99536.63;5074219;28;20189;-78
2023/12/24 07:06:51;;;;;;;1.40;1.30;;;;;;;7.86;100.00;99529.44;5074043;28;20583;-79
2023/12/24 07:09:17;;;;;;;1.30;1.20;;;;;;;7.84;100.00;99530.41;5072988;28;20195;-79
2023/12/24 07:11:42;;;;;;;1.10;1.10;;;;;;;7.88;100.00;99525.03;5077060;28;20223;-79
2023/12/24 07:14:07;;;;;;;1.30;1.20;;;;;;;7.87;100.00;99525.13;5075500;28;20229;-80
2023/12/24 07:16:33;;;;;;;1.70;1.10;;;;;;;7.96;100.00;99526.38;5073327;28;20561;-80
2023/12/24 07:18:58;;;;;;;0.87;0.87;;;;;;;7.97;100.00;99525.47;5070879;28;20202;-81
2023/12/24 07:21:24;;;;;;;1.10;1.10;;;;;;;7.94;100.00;99531.59;5073993;28;20227;-81
2023/12/24 07:23:49;;;;;;;1.23;1.00;;;;;;;7.90;100.00;99523.25;5077486;28;20181;-80
2023/12/24 07:26:14;;;;;;;1.00;1.00;;;;;;;7.88;100.00;99524.22;5074293;28;20199;-81
2023/12/24 07:28:40;;;;;;;0.90;0.90;;;;;;;7.85;100.00;99525.22;5070474;28;20187;-82
2023/12/24 07:31:05;;;;;;;2.90;1.10;;;;;;;7.86;100.00;99529.44;5064027;28;20227;-81
2023/12/24 07:33:30;;;;;;;0.77;0.77;;;;;;;7.89;100.00;99523.31;5062310;28;20181;-81
2023/12/24 07:35:55;;;;;;;0.97;0.90;;;;;;;7.86;100.00;99528.59;5073140;28;20185;-81
2023/12/24 07:38:21;;;;;;;1.40;1.00;;;;;;;7.95;100.00;99523.00;5070996;28;20205;-81
2023/12/24 07:40:46;;;;;;;0.80;0.80;;;;;;;7.84;100.00;99523.56;5064332;28;20671;-81
2023/12/24 07:43:11;;;;;;;0.80;0.80;;;;;;;7.87;100.00;99530.25;5072213;28;20212;-81
2023/12/24 07:45:36;;;;;;;0.83;0.83;;;;;;;7.87;100.00;99532.81;5073024;28;20187;-81
2023/12/24 07:48:02;;;;;;;0.67;0.67;;;;;;;7.83;100.00;99533.88;5070398;28;20181;-81
2023/12/24 07:50:27;;;;;;;1.03;1.03;;;;;;;7.93;100.00;99529.94;5064047;28;20229;-80
2023/12/24 07:52:53;;;;;;;0.77;0.77;;;;;;;7.88;100.00;99531.91;5083147;28;20192;-80
2023/12/24 07:55:18;;;;;;;2.47;1.10;;;;;;;7.89;100.00;99523.31;5067493;28;20228;-80
2023/12/24 07:57:43;;;;;;;1.07;1.00;;;;;;;7.86;100.00;99524.31;5054115;28;20204;-80
2023/12/24 08:00:09;;;;;;;1.27;1.10;;;;;;;7.77;100.00;99514.53;5044016;28;20177;-79
2023/12/24 08:02:34;;;;;;;1.30;1.20;;;;;;;7.87;100.00;99515.69;5052729;28;20280;-77
2023/12/24 08:05:00;;;;;;;1.20;1.20;;;;;;;7.93;100.00;99524.00;5053302;28;20261;-77
2023/12/24 08:07:25;;;;;;;1.10;0.97;;;;;;;7.81;100.00;99526.25;5054335;28;20702;-77
2023/12/24 08:09:50;;;;;;;1.47;1.20;;;;;;;7.82;100.00;99527.94;5053338;28;20192;-76
2023/12/24 08:12:16;;;;;;;4.47;3.20;;;;;;;7.83;100.00;99524.47;5058944;28;20327;-77
2023/12/24 08:14:41;;;;;;;1.83;1.63;;;;;;;7.80;100.00;99523.78;5052789;28;20614;-76
2023/12/24 08:17:06;;;;;;;1.43;1.33;;;;;;;7.70;100.00;99515.75;5063064;28;20258;-75
2023/12/24 08:19:32;;;;;;;1.53;1.43;;;;;;;7.83;100.00;99526.22;5067762;28;20529;-75
2023/12/24 08:21:57;;;;;;;2.07;1.50;;;;;;;7.99;100.00;99518.50;5062107;28;20224;-76
2023/12/24 08:24:22;;;;;;;1.20;1.20;;;;;;;7.99;100.00;99508.28;5054590;28;20192;-74
2023/12/24 08:26:48;;;;;;;1.13;1.13;;;;;;;7.95;100.00;99514.47;5065855;28;20471;-75
2023/12/24 08:29:13;;;;;;;2.23;1.50;;;;;;;7.85;100.00;99512.41;5066884;28;20184;-76
2023/12/24 08:31:39;;;;;;;1.50;1.40;;;;;;;8.03;100.00;99509.78;5029899;28;20217;-75
2023/12/24 08:34:04;;;;;;;1.53;1.43;;;;;;;8.07;100.00;99509.53;5050040;28;20197;-76
2023/12/24 08:36:29;;;;;;;1.97;1.77;;;;;;;8.04;100.00;99511.44;5067964;28;20215;-77
2023/12/24 08:38:54;;;;;;;1.27;1.17;;;;;;;8.05;100.00;99506.22;5060296;28;20180;-77
2023/12/24 08:41:20;;;;;;;0.93;0.93;;;;;;;8.04;100.00;99506.31;5044037;28;20237;-77
2023/12/24 08:43:45;;;;;;;2.10;0.80;;;;;;;8.03;100.00;99500.34;5064642;28;20209;-77
2023/12/24 08:46:11;;;;;;;0.70;0.70;;;;;;;8.07;100.00;99496.72;5056756;28;20525;-78
2023/12/24 08:48:37;;;;;;;0.60;0.60;;;;;;;8.09;100.00;99512.00;5057491;28;20559;-77
2023/12/24 08:51:03;;;;;;;0.73;0.73;;;;;;;8.07;100.00;99512.09;5052517;28;20248;-76
2023/12/24 08:53:28;;;;;;;0.70;0.70;;;;;;;8.22;100.00;99520.69;5066164;28;20566;-77
2023/12/24 08:55:54;;;;;;;0.60;0.60;;;;;;;8.22;100.00;99525.81;5067982;28;20185;-77
2023/12/24 08:58:19;;;;;;;0.50;0.50;;;;;;;8.24;100.00;99511.16;5070620;28;20216;-77
2023/12/24 09:00:44;;;;;;;0.53;0.53;;;;;;;8.28;100.00;99519.53;5059745;28;20290;-72
2023/12/24 09:03:10;;;;;;;0.80;0.80;;;;;;;8.31;100.00;99519.38;5068375;28;20177;-72
2023/12/24 09:05:35;;;;;;;0.83;0.60;;;;;;;8.34;100.00;99513.25;5061636;28;20212;-75
2023/12/24 09:08:00;;;;;;;0.60;0.60;;;;;;;8.48;100.00;99505.63;5067079;28;20181;-70
2023/12/24 09:10:25;;;;;;;0.53;0.53;;;;;;;8.50;100.00;99508.97;5064538;28;20690;-70
2023/12/24 09:12:51;;;;;;;0.50;0.50;;;;;;;8.54;100.00;99507.06;5059921;28;20539;-71
2023/12/24 09:15:17;;;;;;;0.57;0.50;;;;;;;8.63;100.00;99509.09;5047672;28;20297;-79
2023/12/24 09:17:43;;;;;;;0.60;0.60;;;;;;;8.66;100.00;99510.69;5052121;28;20203;-77
2023/12/24 09:20:08;;;;;;;0.50;0.50;;;;;;;8.66;100.00;99510.69;5042946;28;20316;-77
2023/12/24 09:22:34;;;;;;;0.60;0.60;;;;;;;8.72;100.00;99523.16;5032891;28;20291;-76
2023/12/24 09:24:59;;;;;;;1.50;0.43;;;;;;;8.75;100.00;99499.06;5048582;28;20646;-75
2023/12/24 09:27:24;;;;;;;0.70;0.70;;;;;;;8.78;100.00;99504.88;5051258;28;20177;-74
2023/12/24 09:29:49;;;;;;;0.70;0.57;;;;;;;8.80;100.00;99504.75;5051967;28;20260;-74
2023/12/24 09:32:15;;;;;;;0.40;0.40;;;;;;;8.76;100.00;99509.25;5042562;28;20212;-81
2023/12/24 09:34:40;;;;;;;0.33;0.33;;;;;;;8.70;100.00;99509.59;5039610;28;20262;-77
2023/12/24 09:37:05;;;;;;;0.70;0.70;;;;;;;8.68;100.00;99508.84;5070505;28;20210;-74
2023/12/24 09:39:30;;;;;;;0.70;0.70;;;;;;;8.74;100.00;99518.75;5071470;28;20620;-74
2023/12/24 09:41:57;;;;;;;0.30;0.30;;;;;;;8.77;100.00;99510.06;5054765;28;20307;-75
2023/12/24 09:44:23;;;;;;;0.60;0.60;;;;;;;8.79;100.00;99510.81;5060717;28;20201;-77
2023/12/24 09:46:49;;;;;;;0.40;0.40;;;;;;;8.79;100.00;99508.25;5069674;28;20176;-74
2023/12/24 09:49:14;;;;;;;0.47;0.47;;;;;;;8.75;100.00;99506.78;5068803;28;20617;-74
2023/12/24 09:51:42;;;;;;;0.53;0.53;;;;;;;8.78;100.00;99507.44;5072705;28;20255;-74
2023/12/24 09:54:07;;;;;;;0.40;0.40;;;;;;;8.87;100.00;99488.94;5073288;28;20181;-74
2023/12/24 09:56:33;;;;;;;0.80;0.50;;;;;;;8.95;100.00;99493.63;5069055;28;20196;-74
2023/12/24 09:58:58;;;;;;;0.50;0.50;;;;;;;8.96;100.00;99492.72;5070065;28;20189;-80
2023/12/24 10:01:23;;;;;;;0.67;0.50;;;;;;;8.97;100.00;99491.81;5070049;28;20303;-79
2023/12/24 10:03:49;;;;;;;0.40;0.40;;;;;;;8.99;100.00;99500.25;5069502;28;20186;-80
2023/12/24 10:06:14;;;;;;;0.50;0.43;;;;;;;8.95;100.00;99508.19;5059267;28;20177;-80
2023/12/24 10:08:40;;;;;;;0.47;0.47;;;;;;;8.88;100.00;99498.28;5056897;28;20188;-79
2023/12/24 10:11:23;;;;;;;0.50;0.50;;;;;;;8.92;100.00;99491.25;5046284;28;20344;-81
2023/12/24 10:13:58;;;;;;;0.40;0.40;;;;;;;9.11;100.00;99490.19;5038466;28;20181;-81
2023/12/24 10:16:24;;;;;;;0.40;0.40;;;;;;;9.26;100.00;99476.44;5058360;28;20656;-73
2023/12/24 10:18:50;;;;;;;0.67;0.40;;;;;;;9.39;100.00;99489.38;5055287;28;20190;-67
2023/12/24 10:21:16;;;;;;;1.43;0.33;;;;;;;9.50;100.00;99497.28;5053773;28;20236;-68
2023/12/24 10:23:41;;;;;;;0.60;0.60;;;;;;;9.55;100.00;99501.28;5061351;28;20196;-70
2023/12/24 10:26:08;;;;;;;0.57;0.50;;;;;;;9.48;100.00;99503.41;5058595;28;20636;-68
2023/12/24 10:28:48;;;;;;;0.50;0.50;;;;;;;9.58;100.00;99511.41;5056256;28;20225;-73
2023/12/24 10:31:14;;;;;;;0.70;0.67;;;;;;;9.50;100.00;99504.97;5045503;28;20231;-70
2023/12/24 10:33:40;;;;;;;0.40;0.40;;;;;;;9.49;100.00;99492.25;5044736;28;20533;-68
2023/12/24 10:36:06;;;;;;;0.40;0.40;;;;;;;9.63;100.00;99481.13;5062764;28;20185;-69
2023/12/24 10:38:32;;;;;;;0.53;0.53;;;;;;;9.73;100.00;99471.94;5058457;28;20173;-76
2023/12/24 10:40:58;;;;;;;0.40;0.40;;;;;;;9.74;100.00;99475.34;5056591;28;20231;-80
2023/12/24 10:43:24;;;;;;;0.77;0.60;;;;;;;9.84;100.00;99473.84;5058879;28;20314;-81
2023/12/24 10:45:49;;;;;;;0.50;0.50;;;;;;;9.94;100.00;99469.78;5069513;28;20200;-79
2023/12/24 10:48:14;;;;;;;2.27;0.60;;;;;;;9.94;100.00;99472.34;5067731;28;20255;-79
2023/12/24 10:50:40;;;;;;;1.17;0.50;;;;;;;10.03;100.00;99463.25;5064305;28;20219;-79
2023/12/24 10:53:05;;;;;;;0.43;0.43;;;;;;;10.06;100.00;99452.78;5080415;28;20210;-79
2023/12/24 10:55:34;;;;;;;0.40;0.40;;;;;;;10.07;100.00;99453.59;5061435;28;20212;-79
2023/12/24 10:58:19;;;;;;;0.60;0.43;;;;;;;10.06;100.00;99444.25;5050506;28;20213;-78
2023/12/24 11:00:45;;;;;;;0.70;0.70;;;;;;;10.03;100.00;99435.00;5039109;28;20233;-78
2023/12/24 11:03:10;;;;;;;0.73;0.60;;;;;;;10.06;100.00;99434.81;5065893;28;20272;-78
2023/12/24 11:05:42;;;;;;;0.60;0.60;;;;;;;9.99;100.00;99441.25;5061025;28;20211;-78
2023/12/24 11:08:19;;;;;;;0.60;0.60;;;;;;;10.13;100.00;99453.22;5069993;28;20181;-78
2023/12/24 11:10:52;;;;;;;1.53;0.40;;;;;;;10.09;100.00;99441.50;5052308;28;20285;-78
2023/12/24 11:13:29;;;;;;;0.63;0.60;;;;;;;10.07;100.00;99446.75;5049973;28;20228;-78
2023/12/24 11:15:55;;;;;;;0.57;0.57;;;;;;;10.05;100.00;99443.44;5051486;28;20525;-78
2023/12/24 11:18:48;;;;;;;0.37;0.37;;;;;;;10.06;100.00;99434.81;5049447;28;20197;-80
2023/12/24 11:21:16;;;;;;;0.63;0.60;;;;;;;10.17;100.00;99441.81;5038798;28;20220;-80
2023/12/24 11:23:42;;;;;;;0.83;0.63;;;;;;;10.25;100.00;99413.88;5050043;28;20177;-80
2023/12/24 11:26:26;;;;;;;0.77;0.50;;;;;;;10.33;100.00;99416.81;5050077;28;20174;-78
2023/12/24 11:28:52;;;;;;;2.27;0.60;;;;;;;10.41;100.00;99402.66;5051604;28;20220;-78